This is the latest recevied weather packets stored in our database for station/object DL1BWU. If no packets are shown the sender has not sent any weather packets the latest 10 day(s).
| Time | Temp. | Humidity | Pressure | Rain* | Wind** | Luminosity | Snow |
|---|---|---|---|---|---|---|---|
| 1777868712 | 16.11° C | 59% | 1010.8 hPa | 0 mm | - | - | - |
| 1777868112 | 16.11° C | 58% | 1011 hPa | 0 mm | - | - | - |
| 1777867512 | 16.11° C | 58% | 1011 hPa | 0 mm | - | - | - |
| 1777866912 | 16.11° C | 57% | 1010.9 hPa | 0 mm | - | - | - |
| 1777865712 | 16.11° C | 57% | 1011.2 hPa | 0 mm | - | - | - |
| 1777864512 | 16.11° C | 56% | 1011.2 hPa | 0 mm | - | - | - |
| 1777862712 | 16.11° C | 55% | 1011.3 hPa | 0 mm | - | - | - |
| 1777847113 | 17.22° C | 56% | 1010.4 hPa | 0 mm | - | - | - |
| 1777846513 | 17.22° C | 56% | 1010.5 hPa | 0 mm | - | - | - |
| 1777845313 | 17.22° C | 55% | 1010.3 hPa | 0 mm | - | - | - |
| 1777844713 | 17.22° C | 55% | 1010.2 hPa | 0 mm | - | - | - |
| 1777844113 | 17.78° C | 55% | 1010.2 hPa | 0 mm | - | - | - |
| 1777843513 | 17.78° C | 55% | 1010.3 hPa | 0 mm | - | - | - |
| 1777842313 | 17.78° C | 53% | 1010.3 hPa | 0 mm | - | - | - |
| 1777841113 | 18.33° C | 52% | 1010 hPa | 0 mm | - | - | - |
| 1777839913 | 18.89° C | 52% | 1010 hPa | 0 mm | - | - | - |
| 1777838713 | 18.89° C | 50% | 1010.2 hPa | 0 mm | - | - | - |
| 1777829713 | 25° C | 38% | 1009.4 hPa | 0 mm | - | - | - |
| 1777821914 | 27.78° C | 30% | 1009.7 hPa | 0 mm | - | - | - |
| 1777821314 | 27.78° C | 30% | 1010 hPa | 0 mm | - | - | - |
| 1777817114 | 28.89° C | 29% | 1010.4 hPa | 0 mm | - | - | - |
| 1777815914 | 29.44° C | 30% | 1010.6 hPa | 0 mm | - | - | - |
| 1777810514 | 29.44° C | 30% | 1011.6 hPa | 0 mm | - | - | - |
| 1777802714 | 26.67° C | 37% | 1012.6 hPa | 0 mm | - | - | - |
| 1777800914 | 25° C | 41% | 1012.7 hPa | 0 mm | - | - | - |
* Rain latest hour (hover to see other rain measurements)
** Current wind speed in m/s (hover to see current wind gust speed)